sensor_id;sensor_type;location;lat;lon;timestamp;temperature;humidity
16732;DHT22;8484;50.904;9.192;2023-04-03T00:00:31;3.70;99.90
16732;DHT22;8484;50.904;9.192;2023-04-03T00:02:58;3.60;99.90
16732;DHT22;8484;50.904;9.192;2023-04-03T00:05:25;3.60;99.90
16732;DHT22;8484;50.904;9.192;2023-04-03T00:07:53;3.60;99.90
16732;DHT22;8484;50.904;9.192;2023-04-03T00:10:21;3.60;99.90
16732;DHT22;8484;50.904;9.192;2023-04-03T00:12:48;3.50;99.90
16732;DHT22;8484;50.904;9.192;2023-04-03T00:15:15;3.50;99.90
16732;DHT22;8484;50.904;9.192;2023-04-03T00:17:42;3.40;99.90
16732;DHT22;8484;50.904;9.192;2023-04-03T00:20:09;3.40;99.90
16732;DHT22;8484;50.904;9.192;2023-04-03T00:22:36;3.20;99.90
16732;DHT22;8484;50.904;9.192;2023-04-03T00:25:05;3.10;99.90
16732;DHT22;8484;50.904;9.192;2023-04-03T00:27:32;3.10;99.90
16732;DHT22;8484;50.904;9.192;2023-04-03T00:29:59;3.10;99.90
16732;DHT22;8484;50.904;9.192;2023-04-03T00:32:26;3.20;99.90
16732;DHT22;8484;50.904;9.192;2023-04-03T00:34:53;3.10;99.90
16732;DHT22;8484;50.904;9.192;2023-04-03T00:37:20;3.10;99.90
16732;DHT22;8484;50.904;9.192;2023-04-03T00:39:47;3.10;99.90
16732;DHT22;8484;50.904;9.192;2023-04-03T00:42:15;3.10;99.90
16732;DHT22;8484;50.904;9.192;2023-04-03T00:47:46;3.10;99.90
16732;DHT22;8484;50.904;9.192;2023-04-03T00:50:13;3.20;99.90
16732;DHT22;8484;50.904;9.192;2023-04-03T00:52:40;3.00;99.90
16732;DHT22;8484;50.904;9.192;2023-04-03T00:55:08;3.00;99.90
16732;DHT22;8484;50.904;9.192;2023-04-03T00:57:37;2.80;99.90
16732;DHT22;8484;50.904;9.192;2023-04-03T01:00:08;2.70;99.90
16732;DHT22;8484;50.904;9.192;2023-04-03T01:02:36;2.80;99.90
16732;DHT22;8484;50.904;9.192;2023-04-03T01:05:04;2.70;99.90
16732;DHT22;8484;50.904;9.192;2023-04-03T01:07:32;2.70;99.90
16732;DHT22;8484;50.904;9.192;2023-04-03T01:10:06;2.50;99.90
16732;DHT22;8484;50.904;9.192;2023-04-03T01:12:37;2.50;99.90
16732;DHT22;8484;50.904;9.192;2023-04-03T01:15:06;2.60;99.90
16732;DHT22;8484;50.904;9.192;2023-04-03T01:17:36;2.50;99.90
16732;DHT22;8484;50.904;9.192;2023-04-03T01:20:26;2.40;99.90
16732;DHT22;8484;50.904;9.192;2023-04-03T01:23:10;2.30;99.90
16732;DHT22;8484;50.904;9.192;2023-04-03T01:25:40;2.30;99.90
16732;DHT22;8484;50.904;9.192;2023-04-03T01:28:12;2.30;99.90
16732;DHT22;8484;50.904;9.192;2023-04-03T01:30:43;2.30;99.90
16732;DHT22;8484;50.904;9.192;2023-04-03T01:33:13;2.20;99.90
16732;DHT22;8484;50.904;9.192;2023-04-03T01:35:40;2.10;99.90
16732;DHT22;8484;50.904;9.192;2023-04-03T01:38:08;2.10;99.90
16732;DHT22;8484;50.904;9.192;2023-04-03T01:40:36;2.00;99.90
16732;DHT22;8484;50.904;9.192;2023-04-03T01:43:02;2.00;99.90
16732;DHT22;8484;50.904;9.192;2023-04-03T01:45:29;2.00;99.90
16732;DHT22;8484;50.904;9.192;2023-04-03T01:47:56;1.90;99.90
16732;DHT22;8484;50.904;9.192;2023-04-03T01:50:25;1.90;99.90
16732;DHT22;8484;50.904;9.192;2023-04-03T01:52:52;1.80;99.90
16732;DHT22;8484;50.904;9.192;2023-04-03T01:55:19;1.80;99.90
16732;DHT22;8484;50.904;9.192;2023-04-03T01:57:45;1.80;99.90
16732;DHT22;8484;50.904;9.192;2023-04-03T02:00:13;1.60;99.90
16732;DHT22;8484;50.904;9.192;2023-04-03T02:02:41;1.60;99.90
16732;DHT22;8484;50.904;9.192;2023-04-03T02:05:08;1.70;99.90
16732;DHT22;8484;50.904;9.192;2023-04-03T02:07:36;1.60;99.90
16732;DHT22;8484;50.904;9.192;2023-04-03T02:10:04;1.70;99.90
16732;DHT22;8484;50.904;9.192;2023-04-03T02:12:31;1.50;99.90
16732;DHT22;8484;50.904;9.192;2023-04-03T02:14:58;1.40;99.90
16732;DHT22;8484;50.904;9.192;2023-04-03T02:17:26;1.40;99.90
16732;DHT22;8484;50.904;9.192;2023-04-03T02:19:53;1.40;99.90
16732;DHT22;8484;50.904;9.192;2023-04-03T02:22:20;1.40;99.90
16732;DHT22;8484;50.904;9.192;2023-04-03T02:24:48;1.20;99.90
16732;DHT22;8484;50.904;9.192;2023-04-03T02:27:15;1.20;99.90
16732;DHT22;8484;50.904;9.192;2023-04-03T02:29:42;1.10;99.90
16732;DHT22;8484;50.904;9.192;2023-04-03T02:32:09;1.20;99.90
16732;DHT22;8484;50.904;9.192;2023-04-03T02:34:36;1.10;99.90
16732;DHT22;8484;50.904;9.192;2023-04-03T02:37:03;1.00;99.90
16732;DHT22;8484;50.904;9.192;2023-04-03T02:39:30;1.00;99.90
16732;DHT22;8484;50.904;9.192;2023-04-03T02:41:58;0.90;99.90
16732;DHT22;8484;50.904;9.192;2023-04-03T02:44:25;0.90;99.90
16732;DHT22;8484;50.904;9.192;2023-04-03T02:46:52;0.90;99.90
16732;DHT22;8484;50.904;9.192;2023-04-03T02:49:23;0.90;99.90
16732;DHT22;8484;50.904;9.192;2023-04-03T02:51:50;1.00;99.90
16732;DHT22;8484;50.904;9.192;2023-04-03T02:54:17;1.10;99.90
16732;DHT22;8484;50.904;9.192;2023-04-03T02:56:44;1.00;99.90
16732;DHT22;8484;50.904;9.192;2023-04-03T02:59:12;0.90;99.90
16732;DHT22;8484;50.904;9.192;2023-04-03T03:01:39;0.90;99.90
16732;DHT22;8484;50.904;9.192;2023-04-03T03:04:06;0.90;99.90
16732;DHT22;8484;50.904;9.192;2023-04-03T03:06:33;1.00;99.90
16732;DHT22;8484;50.904;9.192;2023-04-03T03:09:00;1.00;99.90
16732;DHT22;8484;50.904;9.192;2023-04-03T03:11:27;0.80;99.90
16732;DHT22;8484;50.904;9.192;2023-04-03T03:13:54;0.70;99.90
16732;DHT22;8484;50.904;9.192;2023-04-03T03:16:22;0.70;99.90
16732;DHT22;8484;50.904;9.192;2023-04-03T03:18:49;0.70;99.90
16732;DHT22;8484;50.904;9.192;2023-04-03T03:21:15;0.70;99.90
16732;DHT22;8484;50.904;9.192;2023-04-03T03:23:42;0.70;99.90
16732;DHT22;8484;50.904;9.192;2023-04-03T03:26:10;0.70;99.90
16732;DHT22;8484;50.904;9.192;2023-04-03T03:28:38;0.60;99.90
16732;DHT22;8484;50.904;9.192;2023-04-03T03:31:07;0.50;99.90
16732;DHT22;8484;50.904;9.192;2023-04-03T03:33:35;0.50;99.90
16732;DHT22;8484;50.904;9.192;2023-04-03T03:36:02;0.50;99.90
16732;DHT22;8484;50.904;9.192;2023-04-03T03:38:29;0.60;99.90
16732;DHT22;8484;50.904;9.192;2023-04-03T03:40:56;0.50;99.90
16732;DHT22;8484;50.904;9.192;2023-04-03T03:43:23;0.50;99.90
16732;DHT22;8484;50.904;9.192;2023-04-03T03:45:50;0.50;99.90
16732;DHT22;8484;50.904;9.192;2023-04-03T03:48:18;0.40;99.90
16732;DHT22;8484;50.904;9.192;2023-04-03T03:50:46;0.40;99.90
16732;DHT22;8484;50.904;9.192;2023-04-03T03:53:13;0.40;99.90
16732;DHT22;8484;50.904;9.192;2023-04-03T03:55:40;0.40;99.90
16732;DHT22;8484;50.904;9.192;2023-04-03T03:58:07;0.50;99.90
16732;DHT22;8484;50.904;9.192;2023-04-03T04:00:34;0.40;99.90
16732;DHT22;8484;50.904;9.192;2023-04-03T04:03:01;0.40;99.90
16732;DHT22;8484;50.904;9.192;2023-04-03T04:05:28;0.60;99.90
16732;DHT22;8484;50.904;9.192;2023-04-03T04:07:57;0.40;99.90
16732;DHT22;8484;50.904;9.192;2023-04-03T04:10:24;0.40;99.90
16732;DHT22;8484;50.904;9.192;2023-04-03T04:12:51;0.30;99.90
16732;DHT22;8484;50.904;9.192;2023-04-03T04:15:18;0.20;99.90
16732;DHT22;8484;50.904;9.192;2023-04-03T04:17:47;0.20;99.90
16732;DHT22;8484;50.904;9.192;2023-04-03T04:20:14;0.20;99.90
16732;DHT22;8484;50.904;9.192;2023-04-03T04:22:41;0.30;99.90
16732;DHT22;8484;50.904;9.192;2023-04-03T04:25:10;0.20;99.90
16732;DHT22;8484;50.904;9.192;2023-04-03T04:27:37;0.30;99.90
16732;DHT22;8484;50.904;9.192;2023-04-03T04:30:04;0.10;99.90
16732;DHT22;8484;50.904;9.192;2023-04-03T04:32:32;0.10;99.90
16732;DHT22;8484;50.904;9.192;2023-04-03T04:34:59;0.10;99.90
16732;DHT22;8484;50.904;9.192;2023-04-03T04:37:26;0.10;99.90
16732;DHT22;8484;50.904;9.192;2023-04-03T04:39:53;0.10;99.90
16732;DHT22;8484;50.904;9.192;2023-04-03T04:42:21;0.00;99.90
16732;DHT22;8484;50.904;9.192;2023-04-03T04:44:48;0.00;99.90
16732;DHT22;8484;50.904;9.192;2023-04-03T04:47:16;0.00;99.90
16732;DHT22;8484;50.904;9.192;2023-04-03T04:49:43;0.00;99.90
16732;DHT22;8484;50.904;9.192;2023-04-03T04:52:10;-0.10;99.90
16732;DHT22;8484;50.904;9.192;2023-04-03T04:54:37;-0.20;99.90
16732;DHT22;8484;50.904;9.192;2023-04-03T04:57:04;-0.10;99.90
16732;DHT22;8484;50.904;9.192;2023-04-03T04:59:34;-0.10;99.90
16732;DHT22;8484;50.904;9.192;2023-04-03T05:02:01;-0.10;99.90
16732;DHT22;8484;50.904;9.192;2023-04-03T05:04:29;-0.10;99.90
16732;DHT22;8484;50.904;9.192;2023-04-03T05:06:55;-0.10;99.90
16732;DHT22;8484;50.904;9.192;2023-04-03T05:09:22;-0.20;99.90
16732;DHT22;8484;50.904;9.192;2023-04-03T05:11:49;-0.20;99.90
16732;DHT22;8484;50.904;9.192;2023-04-03T05:14:16;-0.10;99.90
16732;DHT22;8484;50.904;9.192;2023-04-03T05:16:47;-0.10;99.90
16732;DHT22;8484;50.904;9.192;2023-04-03T05:19:18;0.00;99.90
16732;DHT22;8484;50.904;9.192;2023-04-03T05:21:45;0.00;99.90
16732;DHT22;8484;50.904;9.192;2023-04-03T05:24:11;0.10;99.90
16732;DHT22;8484;50.904;9.192;2023-04-03T05:26:38;0.30;99.90
16732;DHT22;8484;50.904;9.192;2023-04-03T05:29:05;0.20;99.90
16732;DHT22;8484;50.904;9.192;2023-04-03T05:31:32;0.30;99.90
16732;DHT22;8484;50.904;9.192;2023-04-03T05:34:01;0.40;99.90
16732;DHT22;8484;50.904;9.192;2023-04-03T05:36:28;0.50;99.90
16732;DHT22;8484;50.904;9.192;2023-04-03T05:38:54;0.40;99.90
16732;DHT22;8484;50.904;9.192;2023-04-03T05:41:23;0.40;99.90
16732;DHT22;8484;50.904;9.192;2023-04-03T05:43:50;0.50;99.90
16732;DHT22;8484;50.904;9.192;2023-04-03T05:46:18;0.50;99.90
16732;DHT22;8484;50.904;9.192;2023-04-03T05:48:47;0.60;99.90
16732;DHT22;8484;50.904;9.192;2023-04-03T05:51:17;0.60;99.90
16732;DHT22;8484;50.904;9.192;2023-04-03T05:53:44;0.60;99.90
16732;DHT22;8484;50.904;9.192;2023-04-03T05:56:12;0.70;99.90
16732;DHT22;8484;50.904;9.192;2023-04-03T05:58:39;0.80;99.90
16732;DHT22;8484;50.904;9.192;2023-04-03T06:01:06;0.90;99.90
16732;DHT22;8484;50.904;9.192;2023-04-03T06:03:35;0.80;99.90
16732;DHT22;8484;50.904;9.192;2023-04-03T06:06:04;0.80;99.90
16732;DHT22;8484;50.904;9.192;2023-04-03T06:08:32;0.90;99.90
16732;DHT22;8484;50.904;9.192;2023-04-03T06:11:00;0.80;99.90
16732;DHT22;8484;50.904;9.192;2023-04-03T06:13:28;0.80;99.90
16732;DHT22;8484;50.904;9.192;2023-04-03T06:15:55;0.80;99.90
16732;DHT22;8484;50.904;9.192;2023-04-03T06:18:23;0.90;99.90
16732;DHT22;8484;50.904;9.192;2023-04-03T06:20:51;1.00;99.90
16732;DHT22;8484;50.904;9.192;2023-04-03T06:23:18;0.90;99.90
16732;DHT22;8484;50.904;9.192;2023-04-03T06:25:46;1.00;99.90
16732;DHT22;8484;50.904;9.192;2023-04-03T06:28:13;1.10;99.90
16732;DHT22;8484;50.904;9.192;2023-04-03T06:30:40;1.20;99.90
16732;DHT22;8484;50.904;9.192;2023-04-03T06:33:07;1.30;99.90
16732;DHT22;8484;50.904;9.192;2023-04-03T06:35:34;1.40;99.90
16732;DHT22;8484;50.904;9.192;2023-04-03T06:38:02;1.40;99.90
16732;DHT22;8484;50.904;9.192;2023-04-03T06:40:34;1.50;99.90
16732;DHT22;8484;50.904;9.192;2023-04-03T06:43:03;1.60;99.90
16732;DHT22;8484;50.904;9.192;2023-04-03T06:45:30;1.70;99.90
16732;DHT22;8484;50.904;9.192;2023-04-03T06:47:57;1.70;99.90
16732;DHT22;8484;50.904;9.192;2023-04-03T06:50:24;1.60;99.90
16732;DHT22;8484;50.904;9.192;2023-04-03T06:52:51;1.60;99.90
16732;DHT22;8484;50.904;9.192;2023-04-03T06:55:18;1.60;99.90
16732;DHT22;8484;50.904;9.192;2023-04-03T06:57:45;1.90;99.90
16732;DHT22;8484;50.904;9.192;2023-04-03T07:00:15;2.00;99.90
16732;DHT22;8484;50.904;9.192;2023-04-03T07:02:42;2.20;99.90
16732;DHT22;8484;50.904;9.192;2023-04-03T07:05:09;1.90;99.90
16732;DHT22;8484;50.904;9.192;2023-04-03T07:07:37;2.00;99.90
16732;DHT22;8484;50.904;9.192;2023-04-03T07:10:05;2.30;99.90
16732;DHT22;8484;50.904;9.192;2023-04-03T07:12:32;3.00;99.90
16732;DHT22;8484;50.904;9.192;2023-04-03T07:14:59;3.40;99.90
16732;DHT22;8484;50.904;9.192;2023-04-03T07:17:27;3.20;99.90
16732;DHT22;8484;50.904;9.192;2023-04-03T07:19:54;3.40;99.90
16732;DHT22;8484;50.904;9.192;2023-04-03T07:22:21;3.30;99.90
16732;DHT22;8484;50.904;9.192;2023-04-03T07:24:48;2.90;99.90
16732;DHT22;8484;50.904;9.192;2023-04-03T07:27:15;2.80;99.90
16732;DHT22;8484;50.904;9.192;2023-04-03T07:29:43;3.30;99.90
16732;DHT22;8484;50.904;9.192;2023-04-03T07:32:10;3.60;99.90
16732;DHT22;8484;50.904;9.192;2023-04-03T07:34:39;3.60;99.90
16732;DHT22;8484;50.904;9.192;2023-04-03T07:37:06;3.60;99.90
16732;DHT22;8484;50.904;9.192;2023-04-03T07:39:34;3.90;99.90
16732;DHT22;8484;50.904;9.192;2023-04-03T07:42:02;4.30;99.90
16732;DHT22;8484;50.904;9.192;2023-04-03T07:44:29;4.30;99.90
16732;DHT22;8484;50.904;9.192;2023-04-03T07:46:59;4.10;99.90
16732;DHT22;8484;50.904;9.192;2023-04-03T07:49:29;4.10;99.90
16732;DHT22;8484;50.904;9.192;2023-04-03T07:51:59;4.20;99.90
16732;DHT22;8484;50.904;9.192;2023-04-03T07:54:28;4.60;99.90
16732;DHT22;8484;50.904;9.192;2023-04-03T07:56:57;4.50;99.90
16732;DHT22;8484;50.904;9.192;2023-04-03T07:59:24;4.20;99.90
16732;DHT22;8484;50.904;9.192;2023-04-03T08:01:54;4.00;99.90
16732;DHT22;8484;50.904;9.192;2023-04-03T08:04:22;4.00;99.90
16732;DHT22;8484;50.904;9.192;2023-04-03T08:06:48;3.90;99.90
16732;DHT22;8484;50.904;9.192;2023-04-03T08:09:17;4.10;99.90
16732;DHT22;8484;50.904;9.192;2023-04-03T08:11:45;4.60;99.90
16732;DHT22;8484;50.904;9.192;2023-04-03T08:14:14;5.00;99.90
16732;DHT22;8484;50.904;9.192;2023-04-03T08:16:47;6.00;99.90
16732;DHT22;8484;50.904;9.192;2023-04-03T08:19:18;5.50;99.90
16732;DHT22;8484;50.904;9.192;2023-04-03T08:21:48;5.80;99.90
16732;DHT22;8484;50.904;9.192;2023-04-03T08:24:20;6.40;99.90
16732;DHT22;8484;50.904;9.192;2023-04-03T08:26:50;6.50;99.90
16732;DHT22;8484;50.904;9.192;2023-04-03T08:29:21;6.70;99.90
16732;DHT22;8484;50.904;9.192;2023-04-03T08:31:48;6.10;99.90
16732;DHT22;8484;50.904;9.192;2023-04-03T08:34:16;5.60;99.90
16732;DHT22;8484;50.904;9.192;2023-04-03T08:36:45;5.40;99.90
16732;DHT22;8484;50.904;9.192;2023-04-03T08:39:15;5.80;99.90
16732;DHT22;8484;50.904;9.192;2023-04-03T08:41:44;5.60;99.90
16732;DHT22;8484;50.904;9.192;2023-04-03T08:44:19;6.10;99.90
16732;DHT22;8484;50.904;9.192;2023-04-03T08:47:13;6.00;99.90
16732;DHT22;8484;50.904;9.192;2023-04-03T08:49:46;6.50;99.90
16732;DHT22;8484;50.904;9.192;2023-04-03T08:52:18;6.60;99.90
16732;DHT22;8484;50.904;9.192;2023-04-03T08:54:51;6.50;99.90
16732;DHT22;8484;50.904;9.192;2023-04-03T08:57:28;6.30;99.90
16732;DHT22;8484;50.904;9.192;2023-04-03T08:59:56;7.10;99.90
16732;DHT22;8484;50.904;9.192;2023-04-03T09:02:29;7.10;99.90
16732;DHT22;8484;50.904;9.192;2023-04-03T09:05:11;7.10;99.90
16732;DHT22;8484;50.904;9.192;2023-04-03T09:07:42;6.50;99.90
16732;DHT22;8484;50.904;9.192;2023-04-03T09:10:12;6.90;99.90
16732;DHT22;8484;50.904;9.192;2023-04-03T09:12:45;7.00;99.90
16732;DHT22;8484;50.904;9.192;2023-04-03T09:15:18;7.00;99.90
16732;DHT22;8484;50.904;9.192;2023-04-03T09:18:00;8.00;99.90
16732;DHT22;8484;50.904;9.192;2023-04-03T09:20:39;8.00;99.90
16732;DHT22;8484;50.904;9.192;2023-04-03T09:23:19;8.60;99.90
16732;DHT22;8484;50.904;9.192;2023-04-03T09:25:58;8.50;99.90
16732;DHT22;8484;50.904;9.192;2023-04-03T09:28:30;8.20;99.90
16732;DHT22;8484;50.904;9.192;2023-04-03T09:31:05;7.90;99.90
16732;DHT22;8484;50.904;9.192;2023-04-03T09:33:44;7.30;99.90
16732;DHT22;8484;50.904;9.192;2023-04-03T09:36:13;7.90;99.90
16732;DHT22;8484;50.904;9.192;2023-04-03T09:38:40;8.30;99.90
16732;DHT22;8484;50.904;9.192;2023-04-03T09:41:15;8.60;99.90
16732;DHT22;8484;50.904;9.192;2023-04-03T09:43:52;8.80;99.90
16732;DHT22;8484;50.904;9.192;2023-04-03T09:46:28;8.20;99.90
16732;DHT22;8484;50.904;9.192;2023-04-03T09:48:58;9.20;99.90
16732;DHT22;8484;50.904;9.192;2023-04-03T09:51:26;10.30;99.90
16732;DHT22;8484;50.904;9.192;2023-04-03T09:53:59;10.40;99.90
16732;DHT22;8484;50.904;9.192;2023-04-03T09:56:29;10.00;98.50
16732;DHT22;8484;50.904;9.192;2023-04-03T09:59:13;9.90;99.90
16732;DHT22;8484;50.904;9.192;2023-04-03T10:01:43;9.90;99.60
16732;DHT22;8484;50.904;9.192;2023-04-03T10:04:25;9.80;99.80
16732;DHT22;8484;50.904;9.192;2023-04-03T10:06:53;10.00;98.80
16732;DHT22;8484;50.904;9.192;2023-04-03T10:09:27;9.10;99.90
16732;DHT22;8484;50.904;9.192;2023-04-03T10:12:02;7.90;99.70
16732;DHT22;8484;50.904;9.192;2023-04-03T10:14:36;8.50;99.90
16732;DHT22;8484;50.904;9.192;2023-04-03T10:17:14;8.50;99.90
16732;DHT22;8484;50.904;9.192;2023-04-03T10:19:47;7.90;99.90
16732;DHT22;8484;50.904;9.192;2023-04-03T10:22:28;7.50;99.90
16732;DHT22;8484;50.904;9.192;2023-04-03T10:25:10;8.30;99.90
16732;DHT22;8484;50.904;9.192;2023-04-03T10:27:48;8.80;99.90
16732;DHT22;8484;50.904;9.192;2023-04-03T10:30:40;8.80;98.00
16732;DHT22;8484;50.904;9.192;2023-04-03T10:33:31;8.80;99.20
16732;DHT22;8484;50.904;9.192;2023-04-03T10:36:16;8.40;98.30
16732;DHT22;8484;50.904;9.192;2023-04-03T10:38:54;9.00;98.40
16732;DHT22;8484;50.904;9.192;2023-04-03T10:41:31;9.30;99.20
16732;DHT22;8484;50.904;9.192;2023-04-03T10:44:08;8.70;98.40
16732;DHT22;8484;50.904;9.192;2023-04-03T10:46:44;8.60;98.60
16732;DHT22;8484;50.904;9.192;2023-04-03T10:49:30;10.20;98.00
16732;DHT22;8484;50.904;9.192;2023-04-03T10:52:11;9.70;97.10
16732;DHT22;8484;50.904;9.192;2023-04-03T10:54:49;9.30;96.80
16732;DHT22;8484;50.904;9.192;2023-04-03T10:57:20;9.80;97.60
16732;DHT22;8484;50.904;9.192;2023-04-03T10:59:54;9.60;97.90
16732;DHT22;8484;50.904;9.192;2023-04-03T11:02:27;9.00;97.70
16732;DHT22;8484;50.904;9.192;2023-04-03T11:05:00;9.20;99.90
16732;DHT22;8484;50.904;9.192;2023-04-03T11:07:32;10.00;98.20
16732;DHT22;8484;50.904;9.192;2023-04-03T11:10:05;9.50;97.60
16732;DHT22;8484;50.904;9.192;2023-04-03T11:12:40;9.80;98.60
16732;DHT22;8484;50.904;9.192;2023-04-03T11:15:17;9.10;98.30
16732;DHT22;8484;50.904;9.192;2023-04-03T11:17:55;8.00;99.00
16732;DHT22;8484;50.904;9.192;2023-04-03T11:20:30;9.20;98.60
16732;DHT22;8484;50.904;9.192;2023-04-03T11:23:00;9.60;97.90
16732;DHT22;8484;50.904;9.192;2023-04-03T11:25:30;9.60;98.60
16732;DHT22;8484;50.904;9.192;2023-04-03T11:28:00;8.90;98.00
16732;DHT22;8484;50.904;9.192;2023-04-03T11:30:39;9.30;97.90
16732;DHT22;8484;50.904;9.192;2023-04-03T11:35:57;10.30;97.90
16732;DHT22;8484;50.904;9.192;2023-04-03T11:38:29;9.60;98.00
16732;DHT22;8484;50.904;9.192;2023-04-03T11:41:00;10.00;98.60
16732;DHT22;8484;50.904;9.192;2023-04-03T11:43:40;11.40;94.90
16732;DHT22;8484;50.904;9.192;2023-04-03T11:46:09;11.30;97.00
16732;DHT22;8484;50.904;9.192;2023-04-03T11:48:49;10.40;98.60
16732;DHT22;8484;50.904;9.192;2023-04-03T11:51:48;10.40;98.90
16732;DHT22;8484;50.904;9.192;2023-04-03T11:54:45;9.50;96.30
16732;DHT22;8484;50.904;9.192;2023-04-03T11:57:47;9.30;95.10
16732;DHT22;8484;50.904;9.192;2023-04-03T12:00:54;8.60;97.90
16732;DHT22;8484;50.904;9.192;2023-04-03T12:03:57;7.70;98.70
16732;DHT22;8484;50.904;9.192;2023-04-03T12:09:33;9.30;97.20
16732;DHT22;8484;50.904;9.192;2023-04-03T12:12:23;10.10;96.90
16732;DHT22;8484;50.904;9.192;2023-04-03T12:14:51;10.60;95.80
16732;DHT22;8484;50.904;9.192;2023-04-03T12:17:23;10.80;94.10
16732;DHT22;8484;50.904;9.192;2023-04-03T12:19:55;10.50;95.30
16732;DHT22;8484;50.904;9.192;2023-04-03T12:22:22;9.70;95.40
16732;DHT22;8484;50.904;9.192;2023-04-03T12:24:55;9.90;97.40
16732;DHT22;8484;50.904;9.192;2023-04-03T12:27:34;11.00;94.10
16732;DHT22;8484;50.904;9.192;2023-04-03T12:30:21;10.70;94.90
16732;DHT22;8484;50.904;9.192;2023-04-03T12:33:04;9.70;97.50
16732;DHT22;8484;50.904;9.192;2023-04-03T12:35:45;10.50;96.60
16732;DHT22;8484;50.904;9.192;2023-04-03T12:38:58;8.40;97.10
16732;DHT22;8484;50.904;9.192;2023-04-03T12:41:36;9.50;96.80
16732;DHT22;8484;50.904;9.192;2023-04-03T12:44:23;8.40;96.40
16732;DHT22;8484;50.904;9.192;2023-04-03T12:46:54;7.50;96.80
16732;DHT22;8484;50.904;9.192;2023-04-03T12:49:31;7.70;97.20
16732;DHT22;8484;50.904;9.192;2023-04-03T12:52:03;9.30;97.50
16732;DHT22;8484;50.904;9.192;2023-04-03T12:54:36;9.80;97.70
16732;DHT22;8484;50.904;9.192;2023-04-03T12:57:12;10.40;95.90
16732;DHT22;8484;50.904;9.192;2023-04-03T12:59:39;10.00;96.00
16732;DHT22;8484;50.904;9.192;2023-04-03T13:02:19;10.30;97.30
16732;DHT22;8484;50.904;9.192;2023-04-03T13:04:46;10.20;96.60
16732;DHT22;8484;50.904;9.192;2023-04-03T13:07:24;10.70;94.20
16732;DHT22;8484;50.904;9.192;2023-04-03T13:09:59;10.90;95.50
16732;DHT22;8484;50.904;9.192;2023-04-03T13:12:30;10.00;95.30
16732;DHT22;8484;50.904;9.192;2023-04-03T13:15:11;9.80;95.50
16732;DHT22;8484;50.904;9.192;2023-04-03T13:17:38;10.60;97.30
16732;DHT22;8484;50.904;9.192;2023-04-03T13:20:17;10.70;95.60
16732;DHT22;8484;50.904;9.192;2023-04-03T13:22:53;10.20;96.50
16732;DHT22;8484;50.904;9.192;2023-04-03T13:25:23;10.90;95.40
16732;DHT22;8484;50.904;9.192;2023-04-03T13:27:54;10.90;95.40
16732;DHT22;8484;50.904;9.192;2023-04-03T13:30:26;10.00;95.60
16732;DHT22;8484;50.904;9.192;2023-04-03T13:33:00;8.70;95.90
16732;DHT22;8484;50.904;9.192;2023-04-03T13:35:39;8.60;95.90
16732;DHT22;8484;50.904;9.192;2023-04-03T13:38:23;8.10;97.20
16732;DHT22;8484;50.904;9.192;2023-04-03T13:40:56;7.90;97.40
16732;DHT22;8484;50.904;9.192;2023-04-03T13:43:26;9.10;96.80
16732;DHT22;8484;50.904;9.192;2023-04-03T13:45:57;9.00;97.50
16732;DHT22;8484;50.904;9.192;2023-04-03T13:48:25;9.50;97.40
16732;DHT22;8484;50.904;9.192;2023-04-03T13:50:58;9.50;96.00
16732;DHT22;8484;50.904;9.192;2023-04-03T13:53:30;9.30;96.70
16732;DHT22;8484;50.904;9.192;2023-04-03T13:56:05;9.50;96.00
16732;DHT22;8484;50.904;9.192;2023-04-03T13:58:33;9.30;96.30
16732;DHT22;8484;50.904;9.192;2023-04-03T14:01:08;9.80;94.60
16732;DHT22;8484;50.904;9.192;2023-04-03T14:03:41;8.90;96.30
16732;DHT22;8484;50.904;9.192;2023-04-03T14:06:14;7.70;96.80
16732;DHT22;8484;50.904;9.192;2023-04-03T14:08:45;7.20;97.20
16732;DHT22;8484;50.904;9.192;2023-04-03T14:11:18;8.10;96.90
16732;DHT22;8484;50.904;9.192;2023-04-03T14:13:51;8.30;96.00
16732;DHT22;8484;50.904;9.192;2023-04-03T14:16:19;8.90;97.00
16732;DHT22;8484;50.904;9.192;2023-04-03T14:18:52;9.40;95.00
16732;DHT22;8484;50.904;9.192;2023-04-03T14:21:23;8.80;96.00
16732;DHT22;8484;50.904;9.192;2023-04-03T14:23:54;8.40;97.00
16732;DHT22;8484;50.904;9.192;2023-04-03T14:26:23;8.20;96.80
16732;DHT22;8484;50.904;9.192;2023-04-03T14:28:53;8.60;97.40
16732;DHT22;8484;50.904;9.192;2023-04-03T14:31:24;9.20;97.40
16732;DHT22;8484;50.904;9.192;2023-04-03T14:33:51;8.80;96.40
16732;DHT22;8484;50.904;9.192;2023-04-03T14:36:21;8.20;97.10
16732;DHT22;8484;50.904;9.192;2023-04-03T14:38:49;7.50;97.10
16732;DHT22;8484;50.904;9.192;2023-04-03T14:41:20;8.00;97.80
16732;DHT22;8484;50.904;9.192;2023-04-03T14:43:50;8.40;97.90
16732;DHT22;8484;50.904;9.192;2023-04-03T14:46:22;8.40;97.80
16732;DHT22;8484;50.904;9.192;2023-04-03T14:48:50;8.10;97.50
16732;DHT22;8484;50.904;9.192;2023-04-03T14:51:17;7.60;96.30
16732;DHT22;8484;50.904;9.192;2023-04-03T14:53:47;7.90;98.40
16732;DHT22;8484;50.904;9.192;2023-04-03T14:56:18;7.90;97.50
16732;DHT22;8484;50.904;9.192;2023-04-03T14:58:55;8.20;97.00
16732;DHT22;8484;50.904;9.192;2023-04-03T15:01:22;8.40;97.90
16732;DHT22;8484;50.904;9.192;2023-04-03T15:03:51;8.20;97.80
16732;DHT22;8484;50.904;9.192;2023-04-03T15:06:18;7.10;97.20
16732;DHT22;8484;50.904;9.192;2023-04-03T15:08:47;6.90;97.30
16732;DHT22;8484;50.904;9.192;2023-04-03T15:11:15;7.00;97.80
16732;DHT22;8484;50.904;9.192;2023-04-03T15:13:43;7.30;98.10
16732;DHT22;8484;50.904;9.192;2023-04-03T15:16:16;7.20;96.80
16732;DHT22;8484;50.904;9.192;2023-04-03T15:18:44;7.30;97.60
16732;DHT22;8484;50.904;9.192;2023-04-03T15:21:12;7.00;99.00
16732;DHT22;8484;50.904;9.192;2023-04-03T15:23:47;7.20;97.90
16732;DHT22;8484;50.904;9.192;2023-04-03T15:26:15;7.50;97.90
16732;DHT22;8484;50.904;9.192;2023-04-03T15:28:43;7.50;97.40
16732;DHT22;8484;50.904;9.192;2023-04-03T15:31:12;7.60;98.00
16732;DHT22;8484;50.904;9.192;2023-04-03T15:33:40;7.80;98.50
16732;DHT22;8484;50.904;9.192;2023-04-03T15:36:08;7.10;97.30
16732;DHT22;8484;50.904;9.192;2023-04-03T15:38:35;7.40;96.80
16732;DHT22;8484;50.904;9.192;2023-04-03T15:41:06;7.70;97.40
16732;DHT22;8484;50.904;9.192;2023-04-03T15:43:34;8.00;98.20
16732;DHT22;8484;50.904;9.192;2023-04-03T15:46:02;8.20;97.10
16732;DHT22;8484;50.904;9.192;2023-04-03T15:48:32;8.20;97.80
16732;DHT22;8484;50.904;9.192;2023-04-03T15:51:00;8.10;97.40
16732;DHT22;8484;50.904;9.192;2023-04-03T15:53:27;8.30;96.20
16732;DHT22;8484;50.904;9.192;2023-04-03T15:55:59;8.20;96.50
16732;DHT22;8484;50.904;9.192;2023-04-03T15:58:28;7.70;97.10
16732;DHT22;8484;50.904;9.192;2023-04-03T16:00:58;7.90;96.50
16732;DHT22;8484;50.904;9.192;2023-04-03T16:03:30;7.50;97.40
16732;DHT22;8484;50.904;9.192;2023-04-03T16:05:57;7.20;98.70
16732;DHT22;8484;50.904;9.192;2023-04-03T16:08:24;6.80;98.40
16732;DHT22;8484;50.904;9.192;2023-04-03T16:10:51;6.70;98.80
16732;DHT22;8484;50.904;9.192;2023-04-03T16:13:18;6.60;98.40
16732;DHT22;8484;50.904;9.192;2023-04-03T16:15:47;6.20;98.40
16732;DHT22;8484;50.904;9.192;2023-04-03T16:18:19;6.00;98.60
16732;DHT22;8484;50.904;9.192;2023-04-03T16:20:50;6.00;99.10
16732;DHT22;8484;50.904;9.192;2023-04-03T16:23:17;6.10;98.90
16732;DHT22;8484;50.904;9.192;2023-04-03T16:25:44;6.30;98.30
16732;DHT22;8484;50.904;9.192;2023-04-03T16:28:12;6.30;98.80
16732;DHT22;8484;50.904;9.192;2023-04-03T16:30:40;6.50;98.10